createdAt,value
2022-09-06T00:00:16.018Z,30.101
2022-09-06T00:05:16.124Z,30.098
2022-09-06T00:10:16.142Z,30.099
2022-09-06T00:15:16.205Z,30.100
2022-09-06T00:20:19.123Z,30.101
2022-09-06T00:25:19.096Z,30.099
2022-09-06T00:30:19.313Z,30.100
2022-09-06T00:35:19.096Z,30.101
2022-09-06T00:40:15.961Z,30.103
2022-09-06T00:45:16.119Z,30.104
2022-09-06T00:50:16.154Z,30.104
2022-09-06T00:55:16.140Z,30.104
2022-09-06T01:00:19.142Z,30.104
2022-09-06T01:05:19.455Z,30.103
2022-09-06T01:10:19.161Z,30.105
2022-09-06T01:15:19.100Z,30.104
2022-09-06T01:20:16.203Z,30.105
2022-09-06T01:25:19.138Z,30.104
2022-09-06T01:30:16.160Z,30.104
2022-09-06T01:35:16.164Z,30.104
2022-09-06T01:40:16.508Z,30.103
2022-09-06T01:45:16.153Z,30.103
2022-09-06T01:50:19.138Z,30.107
2022-09-06T01:55:19.140Z,30.105
2022-09-06T02:00:16.212Z,30.104
2022-09-06T02:05:19.197Z,30.103
2022-09-06T02:10:16.181Z,30.101
2022-09-06T02:15:16.488Z,30.100
2022-09-06T02:20:19.207Z,30.102
2022-09-06T02:25:19.179Z,30.102
2022-09-06T02:30:19.141Z,30.099
2022-09-06T02:35:19.154Z,30.100
2022-09-06T02:40:16.191Z,30.101
2022-09-06T02:45:19.507Z,30.101
2022-09-06T02:50:16.203Z,30.101
2022-09-06T02:55:16.204Z,30.102
2022-09-06T03:00:19.259Z,30.102
2022-09-06T03:05:19.152Z,30.102
2022-09-06T03:10:19.161Z,30.102
2022-09-06T03:15:19.155Z,30.103
2022-09-06T03:20:19.541Z,30.102
2022-09-06T03:25:19.152Z,30.100
2022-09-06T03:30:16.219Z,30.101
2022-09-06T03:35:16.238Z,30.100
2022-09-06T03:40:19.213Z,30.099
2022-09-06T03:45:19.205Z,30.100
2022-09-06T03:50:19.196Z,30.100
2022-09-06T03:55:16.477Z,30.099
2022-09-06T04:00:18.465Z,30.099
2022-09-06T04:05:18.467Z,30.099
2022-09-06T04:10:15.481Z,30.094
2022-09-06T04:15:18.464Z,30.093
2022-09-06T04:20:18.469Z,30.094
2022-09-06T04:25:18.845Z,30.092
2022-09-06T04:30:18.494Z,30.091
2022-09-06T04:35:18.439Z,30.092
2022-09-06T04:40:18.454Z,30.091
2022-09-06T04:45:18.471Z,30.091
2022-09-06T04:50:15.489Z,30.089
2022-09-06T04:55:15.547Z,30.086
2022-09-06T05:00:18.806Z,30.087
2022-09-06T05:05:18.457Z,30.089
2022-09-06T05:10:18.453Z,30.086
2022-09-06T05:15:18.480Z,30.087
2022-09-06T05:20:15.510Z,30.086
2022-09-06T05:25:15.358Z,30.084
2022-09-06T05:30:18.487Z,30.083
2022-09-06T05:35:18.794Z,30.081
2022-09-06T05:40:18.485Z,30.080
2022-09-06T05:45:18.463Z,30.078
2022-09-06T05:50:15.501Z,30.079
2022-09-06T05:55:15.569Z,30.074
2022-09-06T06:00:18.520Z,30.074
2022-09-06T06:05:18.503Z,30.073
2022-09-06T06:10:18.859Z,30.074
2022-09-06T06:15:18.504Z,30.072
2022-09-06T06:20:18.500Z,30.072
2022-09-06T06:25:15.558Z,30.070
2022-09-06T06:30:18.485Z,30.068
2022-09-06T06:35:15.546Z,30.066
2022-09-06T06:40:18.499Z,30.066
2022-09-06T06:45:15.867Z,30.066
2022-09-06T06:50:18.534Z,30.065
2022-09-06T06:55:18.507Z,30.064
2022-09-06T07:00:18.494Z,30.063
2022-09-06T07:10:51.000Z,30.066
2022-09-06T07:15:18.858Z,30.065
2022-09-06T07:20:15.971Z,30.065
2022-09-06T07:25:21.394Z,30.063
2022-09-06T07:30:18.547Z,30.060
2022-09-06T07:35:18.496Z,30.057
2022-09-06T07:40:18.549Z,30.058
2022-09-06T07:45:18.544Z,30.056
2022-09-06T07:50:53.493Z,30.053
2022-09-06T07:55:15.619Z,30.051
2022-09-06T08:00:18.565Z,30.051
2022-09-06T08:06:10.270Z,30.050
2022-09-06T08:10:18.801Z,30.051
2022-09-06T08:15:18.562Z,30.050
2022-09-06T08:20:18.848Z,30.053
2022-09-06T08:25:15.952Z,30.053
2022-09-06T08:30:15.596Z,30.052
2022-09-06T08:35:18.567Z,30.052
2022-09-06T08:40:18.593Z,30.051
2022-09-06T08:45:18.548Z,30.049
2022-09-06T08:50:18.574Z,30.051
2022-09-06T08:55:18.880Z,30.050
2022-09-06T09:00:15.627Z,30.052
2022-09-06T09:05:15.586Z,30.053
2022-09-06T09:10:18.566Z,30.054
2022-09-06T09:15:18.550Z,30.055
2022-09-06T09:20:18.553Z,30.054
2022-09-06T09:25:18.578Z,30.057
2022-09-06T09:30:54.264Z,30.058
2022-09-06T09:35:18.570Z,30.056
2022-09-06T09:40:15.606Z,30.055
2022-09-06T09:45:18.594Z,30.055
2022-09-06T09:50:18.605Z,30.053
2022-09-06T09:55:18.583Z,30.056
2022-09-06T10:00:15.615Z,30.056
2022-09-06T10:05:18.945Z,30.055
2022-09-06T10:10:15.613Z,30.058
2022-09-06T10:15:15.638Z,30.059
2022-09-06T10:20:18.668Z,30.058
2022-09-06T10:25:18.630Z,30.058
2022-09-06T10:30:18.606Z,30.058
2022-09-06T10:35:18.602Z,30.061
2022-09-06T10:40:15.984Z,30.061
2022-09-06T10:45:18.589Z,30.063
2022-09-06T10:50:15.625Z,30.063
2022-09-06T10:55:15.693Z,30.064
2022-09-06T11:00:18.653Z,30.062
2022-09-06T11:05:54.061Z,30.062
2022-09-06T11:10:18.844Z,30.062
2022-09-06T11:15:18.638Z,30.062
2022-09-06T11:20:18.602Z,30.061
2022-09-06T11:25:15.687Z,30.060
2022-09-06T11:30:15.630Z,30.064
2022-09-06T11:35:15.681Z,30.065
2022-09-06T11:40:31.152Z,30.065
2022-09-06T11:45:18.977Z,30.067
2022-09-06T11:50:18.645Z,30.068
2022-09-06T11:55:22.590Z,30.068
2022-09-06T12:00:18.626Z,30.068
2022-09-06T12:05:18.605Z,30.068
2022-09-06T12:10:15.660Z,30.068
2022-09-06T12:15:15.681Z,30.071
2022-09-06T12:20:15.881Z,30.071
2022-09-06T12:25:18.717Z,30.072
2022-09-06T12:30:18.674Z,30.071
2022-09-06T12:35:58.624Z,30.070
2022-09-06T12:40:18.681Z,30.069
2022-09-06T12:45:15.752Z,30.070
2022-09-06T12:50:15.696Z,30.066
2022-09-06T12:55:19.019Z,30.066
2022-09-06T13:00:18.653Z,30.065
2022-09-06T13:05:18.648Z,30.066
2022-09-06T13:10:18.658Z,30.068
2022-09-06T13:15:15.590Z,30.068
2022-09-06T13:20:18.675Z,30.069
2022-09-06T13:25:18.649Z,30.070
2022-09-06T13:30:15.918Z,30.072
2022-09-06T13:35:18.688Z,30.071
2022-09-06T13:40:18.699Z,30.073
2022-09-06T13:45:18.699Z,30.075
2022-09-06T13:50:18.667Z,30.074
2022-09-06T13:55:15.535Z,30.077
2022-09-06T14:00:15.725Z,30.077
2022-09-06T14:05:15.975Z,30.080
2022-09-06T14:10:15.702Z,30.083
2022-09-06T14:15:18.729Z,30.083
2022-09-06T14:20:18.716Z,30.084
2022-09-06T14:25:18.721Z,30.085
2022-09-06T14:30:18.697Z,30.085
2022-09-06T14:35:15.741Z,30.083
2022-09-06T14:40:19.023Z,30.083
2022-09-06T14:45:15.756Z,30.082
2022-09-06T14:50:15.726Z,30.081
2022-09-06T14:55:15.781Z,30.080
2022-09-06T15:00:15.720Z,30.081
2022-09-06T15:05:18.727Z,30.079
2022-09-06T15:10:18.746Z,30.080
2022-09-06T15:15:19.066Z,30.079
2022-09-06T15:20:18.710Z,30.079
2022-09-06T15:25:18.694Z,30.077
2022-09-06T15:30:15.785Z,30.077
2022-09-06T15:35:15.744Z,30.075
2022-09-06T15:40:18.791Z,30.073
2022-09-06T15:45:18.722Z,30.074
2022-09-06T15:50:40.611Z,30.076
2022-09-06T15:55:18.781Z,30.076
2022-09-06T16:00:18.735Z,30.076
2022-09-06T16:05:18.931Z,30.078
2022-09-06T16:10:15.790Z,30.077
2022-09-06T16:15:15.755Z,30.077
2022-09-06T16:20:15.788Z,30.079
2022-09-06T16:25:19.089Z,30.079
2022-09-06T16:30:18.776Z,30.078
2022-09-06T16:35:18.770Z,30.078
2022-09-06T16:40:18.736Z,30.078
2022-09-06T16:45:18.753Z,30.075
2022-09-06T16:50:15.809Z,30.076
2022-09-06T16:55:15.830Z,30.074
2022-09-06T17:00:16.128Z,30.073
2022-09-06T17:05:18.771Z,30.073
2022-09-06T17:10:18.796Z,30.072
2022-09-06T17:15:18.768Z,30.069
2022-09-06T17:20:18.813Z,30.067
2022-09-06T17:25:18.753Z,30.066
2022-09-06T17:30:19.144Z,30.064
2022-09-06T17:35:18.745Z,30.063
2022-09-06T17:40:15.904Z,30.062
2022-09-06T17:45:15.883Z,30.064
2022-09-06T17:50:18.810Z,30.063
2022-09-06T17:55:18.879Z,30.061
2022-09-06T18:00:18.863Z,30.061
2022-09-06T18:05:19.099Z,30.062
2022-09-06T18:10:18.781Z,30.062
2022-09-06T18:15:15.838Z,30.062
2022-09-06T18:20:15.819Z,30.061
2022-09-06T18:25:15.807Z,30.061
2022-09-06T18:30:15.835Z,30.058
2022-09-06T18:35:18.856Z,30.057
2022-09-06T18:40:19.163Z,30.057
2022-09-06T18:45:18.796Z,30.057
2022-09-06T18:50:18.796Z,30.057
2022-09-06T18:55:18.815Z,30.057
2022-09-06T19:00:15.848Z,30.055
2022-09-06T19:05:15.844Z,30.055
2022-09-06T19:10:18.857Z,30.055
2022-09-06T19:15:16.169Z,30.052
2022-09-06T19:20:18.874Z,30.052
2022-09-06T19:25:18.817Z,30.051
2022-09-06T19:30:18.776Z,30.051
2022-09-06T19:35:18.828Z,30.049
2022-09-06T19:40:18.943Z,30.046
2022-09-06T19:45:15.810Z,30.046
2022-09-06T19:50:16.178Z,30.046
2022-09-06T19:55:15.871Z,30.045
2022-09-06T20:00:18.858Z,30.044
2022-09-06T20:05:18.844Z,30.045
2022-09-06T20:10:18.825Z,30.044
2022-09-06T20:15:18.836Z,30.043
2022-09-06T20:20:19.063Z,30.044
2022-09-06T20:25:15.837Z,30.042
2022-09-06T20:30:15.912Z,30.042
2022-09-06T20:35:15.891Z,30.043
2022-09-06T20:40:15.884Z,30.044
2022-09-06T20:45:18.961Z,30.042
2022-09-06T20:50:18.896Z,30.042
2022-09-06T20:55:19.230Z,30.043
2022-09-06T21:00:18.829Z,30.042
2022-09-06T21:05:18.875Z,30.041
2022-09-06T21:10:15.874Z,30.042
2022-09-06T21:15:15.929Z,30.041
2022-09-06T21:20:18.888Z,30.047
2022-09-06T21:25:18.835Z,30.046
2022-09-06T21:30:19.251Z,30.046
2022-09-06T21:35:18.846Z,30.046
2022-09-06T21:40:18.845Z,30.048
2022-09-06T21:45:15.812Z,30.052
2022-09-06T21:50:15.886Z,30.054
2022-09-06T21:55:16.013Z,30.054
2022-09-06T22:00:18.894Z,30.054
2022-09-06T22:05:19.118Z,30.054
2022-09-06T22:10:18.840Z,30.057
2022-09-06T22:15:18.893Z,30.057
2022-09-06T22:20:18.856Z,30.058
2022-09-06T22:25:15.936Z,30.057
2022-09-06T22:30:15.954Z,30.057
2022-09-06T22:35:15.920Z,30.055
2022-09-06T22:40:19.240Z,30.053
2022-09-06T22:45:18.881Z,30.054
2022-09-06T22:50:18.882Z,30.051
2022-09-06T22:55:18.900Z,30.052
2022-09-06T23:00:18.896Z,30.051
2022-09-06T23:05:15.998Z,30.054
2022-09-06T23:10:15.955Z,30.053
2022-09-06T23:15:16.299Z,30.053
2022-09-06T23:20:18.932Z,30.054
2022-09-06T23:25:18.879Z,30.055
2022-09-06T23:30:18.902Z,30.055
2022-09-06T23:35:18.891Z,30.056
2022-09-06T23:40:15.812Z,30.057
2022-09-06T23:45:19.269Z,30.057
2022-09-06T23:50:18.900Z,30.057
2022-09-06T23:55:15.942Z,30.053
